Flight Track Log - Related Links

Times and Time Zones

All times are in EDT time to prevent confusion due to time zone crossing. See the UAL4476 flight status page for this flight to view local times or setup timezone preferences in your user account.

Time Position Orientation Groundspeed Altitude Reporting Facility
EDT Latitude Longitude Course Direction KTS MPH feet Rate Location/Type
Fri 08:52:58 41.3961 -81.8758 263° West 152 175 1,800  Level Cleveland Center
Fri 08:53:53 41.3911 -81.9339 263° West 210 242 3,500 1,907 Climbing Cleveland Center
Fri 08:54:45 41.4011 -81.9894 284° West 260 299 5,200 2,162 Climbing Cleveland Center
Fri 08:55:44 41.4722 -81.9661 14° North 170 196 7,500 2,269 Climbing Cleveland Center
Fri 08:56:44 41.5294 -81.8756 50° Northeast 252 290 9,700 1,950 Climbing Cleveland Center
Fri 08:57:44 41.5911 -81.7797 49° Northeast 295 339 11,400 1,650 Climbing Cleveland Center
Fri 08:58:44 41.6194 -81.6525 73° East 328 377 13,000 1,600 Climbing Cleveland Center
Fri 08:59:44 41.6478 -81.5167 74° East 365 420 14,600 1,850 Climbing Cleveland Center
Fri 09:00:44 41.6736 -81.3836 75° East 376 433 16,700 2,000 Climbing Cleveland Center
Fri 09:01:44 41.6953 -81.2672 76° East 371 427 18,600 1,450 Climbing Cleveland Center
Fri 09:02:44 41.7211 -81.1339 75° East 366 421 19,600 1,041 Climbing Cleveland Center
Fri 09:03:45 41.7486 -80.9922 75° East 380 437 20,700 1,050 Climbing Cleveland Center
Fri 09:04:44 41.7783 -80.8419 75° East 402 463 21,700 1,160 Climbing Cleveland Center
Fri 09:05:44 41.8078 -80.6889 75° East 419 482 23,000 1,450 Climbing Cleveland Center
Fri 09:06:44 41.8411 -80.5247 75° East 426 490 24,600 1,736 Climbing Cleveland Center
Fri 09:07:45 41.8847 -80.3767 68° East 421 484 26,500 1,785 Climbing Cleveland Center
Fri 09:08:45 41.9261 -80.2342 69° East 421 484 28,200 1,412 Climbing Cleveland Center
Fri 09:09:44 41.9506 -80.0889 77° East 408 470 29,300 908 Climbing Cleveland Center
Fri 09:10:44 41.9750 -79.9519 76° East 402 463 30,000 400 Climbing Cleveland Center
Fri 09:11:44 42.0053 -79.7867 76° East 421 484 30,100 942 Climbing Cleveland Center
Fri 09:12:45 42.0308 -79.6158 79° East 442 509 31,900 1,884 Climbing Cleveland Center
Fri 09:13:45 42.0586 -79.4589 77° East 447 514 33,900 1,563 Climbing Cleveland Center
Fri 09:14:44 42.0864 -79.3044 76° East 435 501 35,000 750 Climbing Cleveland Center
Fri 09:15:45 42.1114 -79.1444 78° East 429 494 35,400 843 Climbing Cleveland Center
Fri 09:16:45 42.1386 -78.9844 77° East 435 501 36,700 807 Climbing Cleveland Center
Fri 09:17:44 42.1653 -78.8211 78° East 435 501 37,000 150 Climbing Cleveland Center
Fri 09:18:45 42.1958 -78.6353 77° East 443 510 37,000  Level Cleveland Center
Fri 09:19:44 42.2219 -78.4606 79° East 455 524 37,000  Level Cleveland Center
Fri 09:20:45 42.2517 -78.2831 77° East 466 536 37,000  Level Cleveland Center
Fri 09:21:44 42.2794 -78.1078 78° East 473 544 37,000  Level Cleveland Center
Fri 09:22:44 42.3067 -77.9328 78° East 473 544 37,000  Level Cleveland Center
Fri 09:23:44 42.3317 -77.7547 79° East 473 544 37,000  Level Cleveland Center
Fri 09:24:45 42.3586 -77.5822 78° East 473 544 37,000  Level Cleveland Center
Fri 09:26:58 42.4158 -77.1881 79° East 468 539 37,000  Level Boston Center
Fri 09:27:58 42.4417 -77.0128 79° East 474 545 37,000  Level Boston Center
Fri 09:28:58 42.4586 -76.8506 82° East 479 551 37,000  Level Boston Center
Fri 09:29:59 42.4778 -76.6717 82° East 479 551 37,000  Level Boston Center
Fri 09:31:00 42.4992 -76.4900 81° East 479 551 37,000  Level Boston Center
Fri 09:31:58 42.5139 -76.3078 84° East 479 551 37,000  Level Boston Center
Fri 09:32:58 42.5169 -76.1475 88° East 479 551 37,000  Level Boston Center
Fri 09:33:59 42.5208 -75.9644 88° East 479 551 37,000  Level Boston Center
Fri 09:34:58 42.5211 -75.7475 90° East 479 551 37,000  Level Boston Center
Fri 09:35:58 42.5264 -75.5619 88° East 479 551 37,000  Level Boston Center
Fri 09:36:59 42.5250 -75.3758 91° East 484 557 37,000  Level Boston Center
Fri 09:37:58 42.5275 -75.1928 89° East 484 557 37,000  Level Boston Center
Fri 09:38:59 42.5300 -75.0039 89° East 490 564 37,000  Level Boston Center
Fri 09:39:59 42.5297 -74.8208 90° East 490 564 37,000  Level Boston Center
Fri 09:41:00 42.5292 -74.6378 90° East 490 564 37,000  Level Boston Center
Fri 09:42:01 42.5306 -74.4544 89° East 490 564 37,000  Level Boston Center
Fri 09:42:59 42.5333 -74.2856 89° East 490 564 37,000  Level Boston Center
Fri 09:43:59 42.5325 -74.0800 90° East 496 571 37,000  Level Boston Center
Fri 09:44:59 42.5306 -73.9136 91° East 496 571 37,000  Level Boston Center
Fri 09:45:58 42.5308 -73.7022 90° East 503 579 37,000 -555 Level Boston Center
Fri 09:46:58 42.5286 -73.5333 91° East 497 572 35,900 -1,350 Descending Boston Center
Fri 09:47:58 42.5303 -73.3247 89° East 496 571 34,300 -1,537 Descending Boston Center
Fri 09:48:59 42.5297 -73.1331 90° East 496 571 32,800 -1,537 Descending Boston Center
Fri 09:49:59 42.5286 -72.9472 90° East 496 571 31,200 -2,017 Descending Boston Center
Fri 09:50:58 42.5250 -72.7556 91° East 496 571 28,800 -2,430 Descending Boston Center
Fri 09:52:00 42.5211 -72.5642 92° East 496 571 26,300 -2,876 Descending Boston Center
Fri 09:52:59 42.5192 -72.3808 91° East 491 565 23,000 -3,277 Descending Boston Center
Fri 09:53:59 42.5147 -72.2119 92° East 478 550 19,800 -3,500 Descending Boston Center
Fri 09:54:59 42.5122 -72.0486 91° East 444 511 16,000 -3,322 Descending Boston Center
Fri 09:56:00 42.5097 -71.9219 91° East 430 495 13,100 -2,617 Descending Boston Center
Fri 09:57:12 42.5067 -71.7558 91° East 375 432 10,200 -2,354 Descending Boston Center
Fri 09:58:10 42.5058 -71.6289 90° East 315 362 8,000 -2,000 Descending Boston Center
Fri 09:58:30 42.5167 -71.5833 72° East 305 351 7,600 -1,378 Descending KA90
Fri 09:59:24 42.5500 -71.4833 66° East 293 337 6,300 -1,053 Descending KA90
Fri 10:00:24 42.5833 -71.3833 66° East 272 313 5,600 -611 Descending KA90
Fri 10:01:12 42.5833 -71.3167 90° East 212 244 5,200 -526 Descending KA90
Fri 10:02:18 42.5500 -71.2667 132° Southeast 177 204 4,600 -727 Descending KA90
Fri 10:03:24 42.5167 -71.2167 132° Southeast 170 196 3,600 -727 Descending KA90
Fri 10:04:30 42.4833 -71.1667 132° Southeast 165 190 3,000 -524 Descending KA90
Fri 10:05:30 42.4500 -71.1333 144° Southeast 147 169 2,500 -650 Descending KA90
Fri 10:06:30 42.4333 -71.0833 114° Southeast 152 175 1,700 -800 Descending KA90
Fri 10:07:30 42.4000 -71.0500 144° Southeast 132 152 900 7,734 Descending KA90
Fri 10:09:23 42.3536 -70.9933 138° Southeast 129 148 24,000 8,012 Climbing Boston Center
Fri 10:10:23 42.3281 -70.9572 134° Southeast 129 148 24,000  Level Boston Center
Fri 10:12:00 42.3630 -71.0064 180° South  Level Estimated
Fri 10:19:00 42.3630 -71.0064 North  Level Estimated
Fri 10:20:00 42.3630 -71.0064 North  Level Estimated
Fri 10:21:00 42.3630 -71.0064 North  Level Estimated
Fri 10:22:00 42.3630 -71.0064 North  Level Estimated
Fri 10:23:00 42.3630 -71.0064 North  Level Estimated
Fri 10:24:00 42.3630 -71.0064 North  Level Estimated

Login

Don't have an account? Register now (free) for customized features, flight alerts, and more!